Glendale, Mississippi
Current Conditions -  °F | °C
As of 10:53 PM on Wednesday 22 Oct 2014 (Local Time) from KHBG Reporting Station
Clear Clear  
Wind Chill: 54°   Ceiling: Unl
Heat Index: 54°   Visibility: 10mi
Dew Point: 48°   Wind: 3mph
Humidity: 80%   Direction: 310°NW
Pressure: 30.12"   Gusts: NA
Location:  31.1996°N, 89.2694°W
Report Text: KHBG 230353Z AUTO 31003KT 10SM CLR 12/09 A3012 RMK AO2 SLP199 T01220089
Loading
Personal Weather Stations






























Interactive Weather Map
Tropical Storm Tracking
New forecast layout! Learn more

10-Day Weather Forecast

Advertisements
Track Severe Weather on mobile